Capitol Logistics 244


MKJP
Norman Manley International Airport
Kingston, JM
KMIA
Miami International Airport
Miami, US

Activity Log

Date Flight Route Aircraft Duration
12/31/2019 CPX420 RADOK L417 BORDO FOWEE B752 1h 42m
10/09/2019 CPX420 N0434F240 LEXUV3 RADOK L417 BEMOL/N0458F380 UL417 BORDO FOWEE FLIPR6 B752 1h 41m
09/08/2019 CPX244 UCA UA301 URSUS FLIPR6 B763 1h 23m
08/13/2019 CPX244 LEXUV3 RADOK URSUS FOWEE FLIPR6 B763 1h 36m
07/04/2019 CPX244 UCA UA301 URSUS FLIPR6 B763 1h 37m
06/20/2019 CPX420 UCA UA301 URSUS FLIPR6 B752 1h 25m
06/03/2019 CPX420 UCA UA301 URSUS FLIPR5 B752 1h 53m
05/10/2019 CPX244 UCA UA301 URSUS FLIPR6 B763 1h 37m
04/19/2019 CPX420 BEXEN UM347 ZEUSS Y325 FOWEE FLIPR6 B752 1h 33m
04/15/2019 CPX420 UCA UA301 URSUS FLIPR6 B752 1h 48m
04/06/2019 CPX420 UCA UA301 URSUS FLIPR6 B752 1h 39m
04/01/2019 CPX420 UCA UA301 URSUS FLIPR6 B752 1h 43m
03/13/2019 CPX244 UCA UA301 URSUS FLIPR6 B763 1h 48m
03/03/2019 CPX244 UCA UA301 URSUS FLIPR6 B763 1h 49m
01/31/2019 CPX420 RADOK6 RADOK UCA/N0458F350 UA301 URSUS FOWEE9 B752 1h 38m
01/15/2019 CPX244 MLY6 KEMBO R640 SIA G430 UCA/N0501F230 A301 URSUS FOWEE9 B763 1h 34m

Route Details

Aircraft Information
Primary: Boeing 767-300BDSF
Backup: Not Available
Route Data
Distance: 518nm
Sched. Duration: 1h 25m
Avg. Duration: 1h 39m (+15m)
Times Flown: 16
Recm'd Route: UCA UA301 URSUS FLIPR6
Planned Altitude: 38,000ft
Origin Wx: MKJP 310700Z 03003KT 9999 FEW020 26/22 Q1013
Dest. Wx: KMIA 310753Z 27003KT 10SM FEW020 SCT250 24/22 A2996 RMK AO2 SLP145 T02390217
Notes:

Financial History
Total Freight: 1,022,290lbs
Average Load: 63,893lbs/flt
Fuel Used: 222,599lbs
Avg. Fuel Used: 13,912lbs/flt
Fuel Expense: $119,548
Avg. Fuel Expense: $7,472
Avg. Fuel Cost: $0.52/lbs
Total Gross Income: $1,398,031
Pilot Pay: $2,254
Total Expenses: $150,817
Total Revenue: $1,122,398
Average Revenue: $87,376.96